Time;durP1;ratioP1;P1;durP2;ratioP2;P2;SDS_P1;SDS_P2;PMS_P1;PMS_P2;Temp;Humidity;BMP_temperature;BMP_pressure;BME280_temperature;BME280_humidity;BME280_pressure;Samples;Min_cycle;Max_cycle;Signal;HPM_P1;HPM_P2
2021/07/16 00:00:11;;;;;;;14.65;7.58;;;;;;;19.98;85.50;97448.08;1707292;82;21026;-75
2021/07/16 00:02:41;;;;;;;;;;;;;;;20.04;85.40;97436.84;1728929;82;20975;-75
2021/07/16 00:05:09;;;;;;;10.65;7.87;;;;;;;20.08;85.41;97426.22;1726335;83;20126;-74
2021/07/16 00:07:40;;;;;;;16.02;8.10;;;;;;;20.05;87.24;97407.14;1726260;83;21061;-75
2021/07/16 00:10:11;;;;;;;12.53;7.50;;;;;;;20.07;85.95;97412.88;1753064;82;21001;-75
2021/07/16 00:12:37;;;;;;;11.65;7.70;;;;;;;20.05;86.21;97396.38;1719996;83;21411;-75
2021/07/16 00:15:08;;;;;;;11.90;8.30;;;;;;;20.04;86.40;97391.98;1695989;84;20993;-75
2021/07/16 00:17:35;;;;;;;11.75;8.23;;;;;;;20.01;86.34;97384.66;1683473;84;21033;-75
2021/07/16 00:20:01;;;;;;;12.50;8.43;;;;;;;20.01;86.24;97386.00;1715598;83;21016;-75
2021/07/16 00:22:28;;;;;;;13.32;8.00;;;;;;;20.02;86.05;97368.37;1686311;85;22206;-74
2021/07/16 00:24:54;;;;;;;15.80;8.10;;;;;;;20.07;86.64;97372.06;1669212;86;21056;-75
2021/07/16 00:27:22;;;;;;;11.28;7.40;;;;;;;20.15;86.06;97376.83;1681394;84;21497;-75
2021/07/16 00:29:49;;;;;;;12.13;8.08;;;;;;;20.14;86.01;97374.62;1700274;84;21032;-75
2021/07/16 00:32:16;;;;;;;13.50;8.05;;;;;;;20.16;85.96;97374.50;1672900;84;21030;-75
2021/07/16 00:34:42;;;;;;;13.90;8.00;;;;;;;20.18;85.52;97390.05;1672453;86;21076;-75
2021/07/16 00:37:12;;;;;;;18.17;9.65;;;;;;;20.17;85.39;97393.22;1680376;84;21037;-75
2021/07/16 00:39:39;;;;;;;17.75;8.70;;;;;;;20.17;85.52;97388.31;1692448;84;21455;-75
2021/07/16 00:42:05;;;;;;;12.25;8.45;;;;;;;20.12;85.23;97394.07;1694393;84;21044;-75
2021/07/16 00:44:37;;;;;;;11.45;8.58;;;;;;;20.10;84.82;97385.75;1679444;84;21029;-75
2021/07/16 00:47:06;;;;;;;14.55;8.55;;;;;;;20.10;84.71;97385.75;1673235;84;21045;-75
2021/07/16 00:49:34;;;;;;;11.93;9.15;;;;;;;20.09;84.30;97384.05;1686885;84;21033;-75
2021/07/16 00:52:01;;;;;;;13.88;8.98;;;;;;;20.05;84.64;97384.75;1700496;84;21056;-75
2021/07/16 00:54:27;;;;;;;11.95;8.95;;;;;;;20.01;86.23;97388.18;1700698;84;20953;-74
2021/07/16 00:56:54;;;;;;;12.23;8.40;;;;;;;20.00;85.02;97383.78;1699653;84;20969;-74
2021/07/16 00:59:21;;;;;;;13.32;9.30;;;;;;;20.01;84.90;97384.66;1700580;84;20984;-74
2021/07/16 01:01:49;;;;;;;13.25;8.73;;;;;;;19.99;84.62;97383.90;1650406;85;21060;-74
2021/07/16 01:04:15;;;;;;;13.30;9.90;;;;;;;19.95;85.06;97381.91;1668606;85;21056;-75
2021/07/16 01:06:42;;;;;;;13.72;9.73;;;;;;;19.94;84.92;97375.30;1677495;85;21033;-75
2021/07/16 01:09:10;;;;;;;14.05;9.40;;;;;;;19.90;84.93;97376.88;1673788;85;21011;-75
2021/07/16 01:11:36;;;;;;;15.20;9.50;;;;;;;19.84;88.43;97392.66;1641044;87;21092;-76
2021/07/16 01:14:03;;;;;;;12.73;9.15;;;;;;;19.78;86.18;97391.29;1641609;86;21476;-75
2021/07/16 01:16:30;;;;;;;17.27;9.90;;;;;;;19.75;87.84;97400.92;1662036;86;21030;-73
2021/07/16 01:18:58;;;;;;;13.80;9.05;;;;;;;19.74;86.17;97391.15;1671154;86;21020;-75
2021/07/16 01:21:28;;;;;;;14.25;9.68;;;;;;;19.72;86.71;97392.61;1671252;86;21087;-75
2021/07/16 01:23:55;;;;;;;17.70;10.23;;;;;;;19.71;87.62;97406.16;1684783;84;21016;-75
2021/07/16 01:26:23;;;;;;;19.77;10.25;;;;;;;19.71;86.24;97416.44;1676677;84;21423;-74
2021/07/16 01:28:52;;;;;;;13.28;9.50;;;;;;;19.74;86.37;97422.06;1679108;84;21434;-72
2021/07/16 01:31:19;;;;;;;13.18;8.63;;;;;;;19.75;86.69;97425.12;1695007;84;21515;-74
2021/07/16 01:33:48;;;;;;;14.53;9.18;;;;;;;19.80;86.12;97433.69;1652131;84;21038;-74
2021/07/16 01:36:14;;;;;;;10.63;8.60;;;;;;;19.85;86.41;97431.50;1699385;84;21067;-73
2021/07/16 01:38:41;;;;;;;12.43;8.15;;;;;;;19.90;87.07;97445.95;1675343;84;21080;-74
2021/07/16 01:41:07;;;;;;;15.40;8.53;;;;;;;19.91;86.55;97449.00;1671241;86;20995;-74
2021/07/16 01:43:39;;;;;;;11.08;7.80;;;;;;;19.97;86.22;97453.06;1671196;86;21062;-74
2021/07/16 01:46:05;;;;;;;14.58;8.53;;;;;;;20.03;86.08;97453.96;1671712;84;21495;-74
2021/07/16 01:48:33;;;;;;;12.95;8.95;;;;;;;20.06;86.46;97455.08;1671195;86;21038;-73
2021/07/16 01:51:00;;;;;;;12.73;8.75;;;;;;;20.11;86.85;97456.05;1671436;86;21069;-73
2021/07/16 01:53:26;;;;;;;14.63;8.85;;;;;;;20.15;88.64;97473.20;1674499;84;21017;-74
2021/07/16 01:55:53;;;;;;;14.65;9.03;;;;;;;20.16;87.58;97495.09;1680178;84;20976;-73
2021/07/16 01:58:20;;;;;;;14.65;8.25;;;;;;;20.17;87.78;97517.45;1676434;84;21056;-74
2021/07/16 02:00:49;;;;;;;16.65;8.40;;;;;;;20.10;87.61;97537.23;1687608;82;20993;-74
2021/07/16 02:03:19;;;;;;;13.05;9.08;;;;;;;20.07;86.66;97533.92;1750681;82;21033;-75
2021/07/16 02:05:48;;;;;;;14.47;9.15;;;;;;;20.05;86.37;97525.97;1750813;82;21581;-75
2021/07/16 02:08:22;;;;;;;15.75;8.88;;;;;;;20.03;86.58;97529.27;1738745;82;21349;-73
2021/07/16 02:10:56;;;;;;;16.45;9.50;;;;;;;20.00;86.26;97533.05;1721243;83;21071;-73
2021/07/16 02:13:24;;;;;;;13.70;9.35;;;;;;;19.93;87.66;97533.09;1721084;83;21441;-73
2021/07/16 02:15:54;;;;;;;17.60;10.55;;;;;;;19.85;87.71;97539.05;1735320;82;21080;-73
2021/07/16 02:18:22;;;;;;;13.88;9.38;;;;;;;19.81;87.74;97541.63;1737740;82;21037;-73
2021/07/16 02:20:50;;;;;;;11.55;8.13;;;;;;;19.79;87.35;97542.22;1726660;82;21009;-73
2021/07/16 02:23:21;;;;;;;14.40;8.68;;;;;;;19.80;86.87;97537.20;1721190;83;21024;-74
2021/07/16 02:25:48;;;;;;;14.87;8.48;;;;;;;19.79;87.86;97547.59;1722924;82;20974;-73
2021/07/16 02:28:31;;;;;;;10.13;7.92;;;;;;;19.77;87.33;97546.86;1749780;82;21017;-73
2021/07/16 02:31:13;;;;;;;13.60;7.95;;;;;;;19.76;87.54;97558.09;1721508;82;21422;-73
2021/07/16 02:33:40;;;;;;;12.20;8.73;;;;;;;19.75;87.35;97563.09;1751046;82;22099;-73
2021/07/16 02:36:09;;;;;;;12.00;9.50;;;;;;;19.78;89.97;97562.02;1750507;82;21392;-73
2021/07/16 02:38:36;;;;;;;7.30;6.05;;;;;;;19.79;88.45;97563.25;1746333;82;21024;-74
2021/07/16 02:41:03;;;;;;;6.08;4.80;;;;;;;19.86;88.19;97570.84;1707919;83;21056;-73
2021/07/16 02:43:31;;;;;;;7.95;4.35;;;;;;;19.87;87.85;97580.16;1693362;84;20977;-74
2021/07/16 02:45:57;;;;;;;7.62;4.53;;;;;;;19.87;88.34;97587.34;1750371;82;21060;-74
2021/07/16 02:48:25;;;;;;;7.58;4.00;;;;;;;19.81;88.34;97595.41;1686572;85;21087;-74
2021/07/16 02:50:53;;;;;;;6.05;3.92;;;;;;;19.77;87.74;97589.88;1677845;85;20987;-74
2021/07/16 02:53:20;;;;;;;6.40;4.10;;;;;;;19.78;87.66;97594.28;1662083;86;21082;-74
2021/07/16 02:55:52;;;;;;;5.25;3.83;;;;;;;19.82;87.81;97591.73;1662026;86;21026;-74
2021/07/16 02:58:19;;;;;;;4.80;3.37;;;;;;;19.83;87.43;97592.10;1662135;86;21014;-74
2021/07/16 03:00:47;;;;;;;6.35;3.72;;;;;;;19.77;87.80;97601.98;1723562;82;21604;-74
2021/07/16 03:03:13;;;;;;;6.40;3.72;;;;;;;19.74;87.41;97590.09;1718988;82;21449;-74
2021/07/16 03:05:40;;;;;;;6.87;3.70;;;;;;;19.71;87.54;97575.52;1714529;82;21610;-74
2021/07/16 03:08:11;;;;;;;7.25;4.17;;;;;;;19.72;86.98;97579.95;1720523;82;21011;-73
2021/07/16 03:10:42;;;;;;;6.30;4.53;;;;;;;19.72;87.10;97579.95;1733583;82;21498;-74
2021/07/16 03:13:13;;;;;;;9.60;4.80;;;;;;;19.69;87.74;97583.73;1742858;82;21018;-75
2021/07/16 03:15:45;;;;;;;8.45;4.80;;;;;;;-148.38;100.00;114527.67;1717178;82;21006;-75
2021/07/16 03:19:49;;;;;;;7.12;4.65;;;;;;;-148.38;100.00;114527.67;1713012;84;21470;-75
